Terminal Aerodrome Forecast
Issued by NWS Paducah, KY

Home | Current Version | Previous Version | Text Only | Print | Product List | Glossary On
Versions: 1 2 3 4 5 6 7 8 9 10 11 12 13 14 15 16 17 18
000
FTUS43 KPAH 200524
TAFEVV
TAF
KEVV 200524Z 2006/2106 08005KT P6SM TS BKN050CB
      TEMPO 2006/2007 VRB10G25KT 3SM TSRA BKN025CB
     FM200700 13005KT P6SM SCT050 BKN250
     FM201000 24008G15KT 6SM -SHRA VCTS BKN040CB
     FM201600 18008KT P6SM SCT050 BKN250
     FM202200 18010KT P6SM BKN050 PROB30 2100/2103 P6SM -TSRA
      BKN035CB=

USA.gov is the U.S. government's official web portal to all federal, state and local government web resources and services.